• Join FlightAware (Why Join?)
  • Login
  • US Flag 
03:02PM EDT


 

Airport Tracker/Info


-or-


 

Live Flight TrackerFlight Track Log ✈ AWE1821 ✈ 03-Jul-2014 ✈ KCLT - KDTW

Flight Track Log - Related Links

Times and Time Zones

All times are in EDT time to prevent confusion due to time zone crossing. See the AWE1821 flight status page for this flight to view local times or setup timezone preferences in your user account.

Time Position Orientation Groundspeed Altitude Reporting Facility
EDT Latitude Longitude Course Direction KTS MPH feet Rate Location/Type
06:22PM 35.2311 -80.9569 344° North 170 196 1,400  Level Atlanta Center
06:24PM 35.3467 -80.9986 344° North 282 325 5,500 1,860 Climbing Atlanta Center
06:24PM 35.3633 -80.9928 16° North 275 316 5,700 1,860 Climbing Atlanta Center
06:25PM 35.4319 -80.9775 10° North 289 333 7,900 2,280 Climbing Atlanta Center
06:26PM 35.5056 -81.0081 341° North 271 312 10,300 2,340 Climbing Atlanta Center
06:28PM 35.6331 -80.9833 North  Level FlightAware Approximate
06:28PM 35.6850 -81.0933 North 325 374 15,000  Level Atlanta Center
06:29PM 35.7794 -81.1233 346° North 339 390 17,100 1,980 Climbing Atlanta Center
06:30PM 35.8783 -81.1478 349° North 349 402 19,000 1,800 Climbing Atlanta Center
06:31PM 35.9825 -81.1494 359° North 361 415 20,700 1,740 Climbing Atlanta Center
06:32PM 36.0908 -81.1481 North 373 429 22,500 1,500 Climbing Atlanta Center
06:33PM 36.2014 -81.1467 North 384 442 23,800 1,260 Climbing Atlanta Center
06:34PM 36.3161 -81.1450 North 396 456 25,100 1,200 Climbing Atlanta Center
06:35PM 36.4308 -81.1436 North 407 468 26,300 960 Climbing Atlanta Center
06:38PM 36.7811 -81.1386 North 431 496 29,000 780 Climbing Atlanta Center
06:41PM 37.0858 -81.1336 North 483 556 30,600 780 Climbing Indianapolis Center
06:42PM 37.2233 -81.1319 North 490 564 31,700 960 Climbing Indianapolis Center
06:43PM 37.3597 -81.1308 360° North 490 564 32,600 720 Climbing Indianapolis Center
06:45PM 37.6650 -81.1247 North 497 572 34,000 240 Climbing Indianapolis Center
06:48PM 38.0622 -81.2269 345° North 485 558 34,100  Climbing Indianapolis Center
06:49PM 38.1897 -81.2783 342° North 484 557 34,000 -60 Descending Indianapolis Center
06:50PM 38.3169 -81.3247 344° North 482 555 34,000  Level Indianapolis Center
06:51PM 38.4444 -81.3725 344° North 481 554 34,000  Level Indianapolis Center
06:52PM 38.5967 -81.4294 344° North 480 552 34,000  Level Indianapolis Center
06:53PM 38.7178 -81.4753 344° North 480 552 34,000  Level Indianapolis Center
06:54PM 38.8469 -81.5250 343° North 491 565 34,000  Level Indianapolis Center
06:55PM 38.9733 -81.5736 343° North 488 562 34,000  Level Indianapolis Center
06:56PM 39.1017 -81.6236 343° North 486 559 34,000  Level Indianapolis Center
06:57PM 39.2558 -81.6831 343° North 485 558 34,000  Level Indianapolis Center
06:58PM 39.3833 -81.7339 343° North 483 556 34,000  Level Indianapolis Center
06:59PM 39.5125 -81.7836 343° North 483 556 34,000  Level Indianapolis Center
07:00PM 39.6403 -81.8347 343° North 483 556 34,000  Level Indianapolis Center
07:01PM 39.7619 -81.8728 346° North 483 556 34,000 -120 Level Indianapolis Center
07:02PM 39.9242 -81.9000 353° North 486 559 33,800 -780 Descending Indianapolis Center
07:03PM 40.0583 -81.9242 352° North 487 560 32,500 -1,320 Descending Indianapolis Center
07:04PM 40.1947 -81.9497 352° North 490 564 31,200 -840 Descending Indianapolis Center
07:06PM 40.4614 -81.9967 353° North 490 564 30,000 -420 Descending Cleveland Center
07:07PM 40.5967 -82.0225 352° North 487 560 30,000 -480 Level Cleveland Center
07:09PM 40.8886 -82.0758 352° North 485 558 28,500 -480 Descending Indianapolis Center
07:11PM 41.0114 -82.0962 353° North  Level FlightAware Approximate
07:11PM 41.1500 -82.1242 353° North 469 540 28,000  Level Indianapolis Center
07:13PM 41.3753 -82.1961 347° North 443 510 25,600 -1,620 Descending Cleveland Center
07:14PM 41.4461 -82.3094 310° West 396 456 23,200 -2,580 Descending Cleveland Center
07:15PM 41.5231 -82.4375 309° West 379 436 20,400 -2,700 Descending Cleveland Center
07:16PM 41.5417 -82.4742 304° West 374 430 19,600 -2,520 Descending Cleveland Center
07:16PM 41.5769 -82.5344 308° West 374 430 18,300 -2,760 Descending Cleveland Center
07:18PM 41.6511 -82.6533 310° West 358 412 14,900 -2,880 Descending Cleveland Center
07:18PM 41.6986 -82.7369 307° West 343 395 12,500 -2,640 Descending Cleveland Center
07:19PM 41.7103 -82.7533 314° West 346 398 12,200 -600 Descending Cleveland Center
07:19PM 41.7650 -82.8294 314° West 327 376 11,900 -600 Descending Cleveland Center
07:21PM 41.8378 -82.9139 319° Northwest 305 351 11,000 -1,080 Descending Cleveland Center
07:21PM 41.8639 -82.9911 294° West 270 311 9,800 -1,560 Descending Cleveland Center
07:22PM 41.8944 -83.0878 293° West 270 311 8,200 -1,440 Descending Cleveland Center
07:23PM 41.8983 -83.0981 297° West 271 312 8,000 -1,680 Descending Cleveland Center
07:24PM 41.9308 -83.1864 296° West 265 305 6,100 -1,860 Descending Cleveland Center
07:24PM 41.9567 -83.2592 296° West 262 302 4,900 -1,380 Descending Cleveland Center
07:25PM 41.9625 -83.2739 298° West 265 305 4,700 -1,140 Descending Cleveland Center
07:25PM 41.9861 -83.3389 296° West 230 265 3,800 -840 Descending Cleveland Center
07:27PM 42.0589 -83.4067 325° Northwest 234 269 3,000 -480 Descending Cleveland Center
07:27PM 42.0947 -83.4244 340° North 209 241 2,900 -120 Descending Cleveland Center
07:28PM 42.1139 -83.4242 North 218 251 2,900 -720 Level Cleveland Center
07:28PM 42.1461 -83.4094 19° North 180 207 2,200 -1,200 Descending Cleveland Center
07:29PM 42.1619 -83.4011 21° North 197 227 1,700 -1,200 Descending Cleveland Center
07:29PM 42.1858 -83.3839 28° Northeast 152 175 1,000 -1,020 Descending Cleveland Center
07:30PM 42.1983 -83.3739 31° Northeast 171 197 700 -720 Descending Cleveland Center
07:32PM 42.2000 -83.3500 323° Northwest  Level FlightAware Approximate